Time;durP1;ratioP1;P1;durP2;ratioP2;P2;SDS_P1;SDS_P2;PMS_P1;PMS_P2;Temp;Humidity;BMP_temperature;BMP_pressure;BME280_temperature;BME280_humidity;BME280_pressure;Samples;Min_cycle;Max_cycle;Signal;HPM_P1;HPM_P2
2022/08/15 00:01:06;;;;;;;14.38;12.05;;;;;;;16.86;84.74;98195.81;2221550;80;21412;-81
2022/08/15 00:04:05;;;;;;;15.90;10.32;;;;;;;16.77;85.25;98184.63;2221817;80;20967;-81
2022/08/15 00:07:06;;;;;;;13.98;11.28;;;;;;;16.66;85.53;98185.33;2222069;80;20917;-81
2022/08/15 00:10:06;;;;;;;13.80;11.03;;;;;;;16.55;85.94;98179.81;2222028;80;20933;-81
2022/08/15 00:13:06;;;;;;;13.20;11.80;;;;;;;16.53;86.73;98172.40;2222371;80;21287;-81
2022/08/15 00:16:07;;;;;;;12.25;11.12;;;;;;;16.54;87.37;98175.90;2222076;80;20956;-81
2022/08/15 00:19:08;;;;;;;12.78;11.48;;;;;;;16.48;87.04;98167.68;2222115;80;20889;-81
2022/08/15 00:22:08;;;;;;;13.83;11.10;;;;;;;16.43;87.06;98169.52;2222222;80;20980;-81
2022/08/15 00:25:09;;;;;;;22.25;12.30;;;;;;;16.39;87.64;98173.13;2222034;80;20928;-81
2022/08/15 00:28:08;;;;;;;9.65;8.35;;;;;;;16.32;87.78;98168.02;2221767;80;21136;-79
2022/08/15 00:31:09;;;;;;;10.65;9.50;;;;;;;16.67;80.07;98163.34;2221868;80;20976;-80
2022/08/15 00:34:09;;;;;;;10.35;8.90;;;;;;;17.44;77.71;98166.70;2221850;80;21320;-80
2022/08/15 00:37:10;;;;;;;12.00;10.80;;;;;;;18.19;76.79;98166.41;2221964;80;20968;-80
2022/08/15 00:40:10;;;;;;;12.68;10.40;;;;;;;18.43;78.90;98170.54;2222273;80;20952;-81
2022/08/15 00:43:10;;;;;;;12.15;9.93;;;;;;;17.93;78.85;98174.63;2222061;80;20925;-80
2022/08/15 00:46:11;;;;;;;11.60;10.50;;;;;;;17.49;79.81;98166.58;2222189;80;21340;-81
2022/08/15 00:49:11;;;;;;;16.45;12.23;;;;;;;17.24;81.03;98171.59;2222233;80;20924;-81
2022/08/15 00:52:12;;;;;;;13.10;11.33;;;;;;;17.09;82.23;98166.26;2222119;80;20921;-81
2022/08/15 00:55:12;;;;;;;14.33;11.68;;;;;;;16.95;82.82;98172.77;2221767;80;20964;-81
2022/08/15 00:58:12;;;;;;;15.55;12.10;;;;;;;16.77;83.63;98170.13;2221949;80;21398;-81
2022/08/15 01:01:14;;;;;;;17.35;13.43;;;;;;;16.62;84.26;98169.14;2221967;80;21011;-80
2022/08/15 01:04:13;;;;;;;13.58;12.28;;;;;;;16.56;85.57;98163.56;2222067;80;20897;-81
2022/08/15 01:07:14;;;;;;;17.35;12.45;;;;;;;16.56;86.26;98161.78;2222130;80;20888;-81
2022/08/15 01:10:14;;;;;;;14.30;12.80;;;;;;;16.54;86.67;98146.47;2221997;80;20937;-80
2022/08/15 01:13:14;;;;;;;14.05;12.55;;;;;;;16.55;87.95;98143.38;2222018;80;20940;-81
2022/08/15 01:16:15;;;;;;;14.73;13.15;;;;;;;16.53;87.74;98140.78;2222148;80;20921;-81
2022/08/15 01:19:15;;;;;;;21.25;13.38;;;;;;;16.54;88.03;98140.33;2222177;80;20979;-81
2022/08/15 01:22:16;;;;;;;15.98;13.15;;;;;;;16.47;88.42;98130.39;2222304;80;20987;-81
2022/08/15 01:25:16;;;;;;;14.30;12.90;;;;;;;16.44;89.67;98124.29;2222494;80;20952;-81
2022/08/15 01:28:16;;;;;;;14.45;12.10;;;;;;;16.37;88.83;98121.38;2218736;80;21359;-81
2022/08/15 01:31:17;;;;;;;18.40;12.53;;;;;;;16.29;88.89;98111.02;2212086;81;20976;-81
2022/08/15 01:34:17;;;;;;;15.35;13.40;;;;;;;16.20;88.68;98130.98;2212040;81;20929;-81
2022/08/15 01:37:18;;;;;;;16.25;13.22;;;;;;;16.11;88.91;98125.91;2211918;81;21367;-81
2022/08/15 01:40:18;;;;;;;18.65;13.35;;;;;;;16.13;89.77;98126.75;2211867;81;20960;-81
2022/08/15 01:43:18;;;;;;;18.12;14.03;;;;;;;16.10;89.68;98132.08;2212110;81;20952;-80
2022/08/15 01:46:19;;;;;;;13.88;12.47;;;;;;;16.02;90.16;98124.34;2211858;81;20925;-82
2022/08/15 01:49:19;;;;;;;17.20;12.88;;;;;;;16.66;91.77;98126.03;2212258;81;21303;-81
2022/08/15 01:52:20;;;;;;;15.80;12.65;;;;;;;16.86;89.24;98121.14;2211783;81;20960;-82
2022/08/15 01:55:20;;;;;;;14.78;13.28;;;;;;;16.72;89.11;98123.25;2212031;81;20917;-81
2022/08/15 01:58:21;;;;;;;16.50;11.83;;;;;;;16.56;89.62;98115.68;2211783;81;20901;-81
2022/08/15 02:01:21;;;;;;;13.58;11.95;;;;;;;16.40;88.54;98114.27;2211330;81;21411;-81
2022/08/15 02:04:21;;;;;;;16.73;12.25;;;;;;;16.30;88.86;98115.39;2212111;81;20889;-82
2022/08/15 02:07:24;;;;;;;20.20;13.08;;;;;;;16.23;88.69;98117.29;2211934;81;20949;-82
2022/08/15 02:10:22;;;;;;;13.95;12.00;;;;;;;16.16;90.23;98122.28;2211604;81;21085;-81
2022/08/15 02:13:23;;;;;;;15.32;12.37;;;;;;;16.08;89.41;98125.98;2211876;81;21347;-81
2022/08/15 02:16:23;;;;;;;15.88;14.18;;;;;;;15.98;89.59;98121.36;2211659;81;20948;-81
2022/08/15 02:19:23;;;;;;;15.10;12.58;;;;;;;15.93;90.17;98128.03;2212010;81;20952;-82
2022/08/15 02:22:24;;;;;;;18.32;13.13;;;;;;;15.85;90.21;98133.91;2212076;81;20913;-81
2022/08/15 02:25:24;;;;;;;15.58;12.73;;;;;;;15.79;90.63;98122.19;2212215;81;20925;-82
2022/08/15 02:28:25;;;;;;;17.32;13.08;;;;;;;15.78;91.13;98115.20;2211780;80;20976;-81
2022/08/15 02:31:25;;;;;;;15.32;13.68;;;;;;;15.77;91.24;98114.78;2211691;81;20980;-82
2022/08/15 02:34:25;;;;;;;14.75;12.88;;;;;;;15.75;91.73;98115.26;2211838;81;20909;-81
2022/08/15 02:37:26;;;;;;;17.62;12.15;;;;;;;15.71;90.99;98108.77;2211963;81;20928;-81
2022/08/15 02:40:26;;;;;;;14.13;12.73;;;;;;;15.67;91.06;98107.97;2212100;81;20991;-81
2022/08/15 02:43:27;;;;;;;13.65;8.60;;;;;;;15.64;90.76;98117.69;2212159;81;21340;-81
2022/08/15 02:46:27;;;;;;;17.27;11.38;;;;;;;15.88;94.38;98127.72;2211437;81;20908;-81
2022/08/15 02:49:27;;;;;;;15.48;12.28;;;;;;;17.17;93.58;98112.00;2212241;81;20926;-82
2022/08/15 02:52:28;;;;;;;13.93;11.50;;;;;;;17.27;88.45;98109.98;2212473;81;20893;-82
2022/08/15 02:55:28;;;;;;;14.13;11.40;;;;;;;16.97;87.23;98111.20;2211838;81;21292;-81
2022/08/15 02:58:29;;;;;;;15.20;11.80;;;;;;;16.61;86.48;98114.70;2211640;81;21383;-81
2022/08/15 03:01:29;;;;;;;16.57;12.25;;;;;;;16.41;87.50;98112.51;2211729;81;21383;-81
2022/08/15 03:04:34;;;;;;;14.07;11.97;;;;;;;16.30;88.65;98117.16;2211777;81;20893;-81
2022/08/15 03:07:30;;;;;;;14.00;12.58;;;;;;;16.11;87.93;98114.06;2211947;81;20968;-80
2022/08/15 03:10:30;;;;;;;18.37;12.60;;;;;;;16.00;88.58;98112.11;2211755;81;21320;-81
2022/08/15 03:13:31;;;;;;;13.88;12.23;;;;;;;15.86;88.79;98125.12;2211669;81;20975;-81
2022/08/15 03:16:31;;;;;;;14.40;12.47;;;;;;;15.73;88.50;98135.47;2211766;81;20928;-82
2022/08/15 03:19:31;;;;;;;15.50;12.68;;;;;;;15.65;88.85;98132.58;2211699;81;20968;-81
2022/08/15 03:22:32;;;;;;;15.93;12.43;;;;;;;15.57;89.30;98137.92;2211532;81;21300;-81
2022/08/15 03:25:32;;;;;;;14.78;11.78;;;;;;;15.52;89.44;98145.90;2211633;81;20964;-81
2022/08/15 03:28:33;;;;;;;17.62;12.53;;;;;;;15.44;89.75;98151.75;2214391;80;20999;-81
2022/08/15 03:31:34;;;;;;;15.15;13.55;;;;;;;15.43;90.39;98146.07;2222175;80;21042;-82
2022/08/15 03:34:33;;;;;;;16.90;12.75;;;;;;;15.48;90.86;98152.11;2222115;80;20924;-81
2022/08/15 03:37:34;;;;;;;14.60;13.08;;;;;;;15.48;90.54;98149.94;2222155;80;20944;-82
2022/08/15 03:40:34;;;;;;;14.23;12.68;;;;;;;15.48;90.91;98154.74;2222381;80;20968;-82
2022/08/15 03:43:36;;;;;;;15.23;13.10;;;;;;;15.49;91.00;98151.67;2222095;80;21331;-81
2022/08/15 03:46:35;;;;;;;15.45;13.80;;;;;;;15.46;91.01;98151.72;2221917;80;20960;-81
2022/08/15 03:49:36;;;;;;;15.28;13.85;;;;;;;15.46;91.11;98144.70;2222382;80;20941;-81
2022/08/15 03:52:36;;;;;;;16.17;13.20;;;;;;;15.47;91.80;98144.25;2222395;80;20901;-82
2022/08/15 03:55:36;;;;;;;19.23;13.88;;;;;;;15.46;91.35;98140.75;2221992;80;20976;-81
2022/08/15 03:58:37;;;;;;;15.30;12.63;;;;;;;15.42;91.27;98140.84;2222260;80;20936;-81
2022/08/15 04:01:37;;;;;;;14.40;12.55;;;;;;;15.38;91.19;98143.11;2222234;80;20960;-82
2022/08/15 04:04:37;;;;;;;17.15;12.78;;;;;;;15.36;91.19;98138.33;2221966;80;20984;-81
2022/08/15 04:07:38;;;;;;;15.78;12.07;;;;;;;15.36;91.30;98137.02;2222127;80;21327;-81
2022/08/15 04:10:38;;;;;;;13.85;12.43;;;;;;;15.36;91.21;98131.75;2222176;80;20939;-82
2022/08/15 04:13:39;;;;;;;15.58;12.98;;;;;;;15.35;91.35;98128.70;2222240;80;20940;-82
2022/08/15 04:16:39;;;;;;;38.05;13.53;;;;;;;15.35;91.50;98126.08;2222078;80;21312;-81
2022/08/15 04:19:39;;;;;;;13.88;12.40;;;;;;;15.56;92.85;98116.46;2221964;80;20960;-81
2022/08/15 04:22:41;;;;;;;13.30;11.90;;;;;;;15.54;91.68;98112.99;2222065;80;20924;-82
2022/08/15 04:25:40;;;;;;;13.78;11.90;;;;;;;15.50;91.26;98109.55;2221957;80;20975;-81
2022/08/15 04:28:43;;;;;;;13.48;11.57;;;;;;;15.51;91.50;98118.31;2219682;80;20992;-81
2022/08/15 04:31:41;;;;;;;14.70;10.70;;;;;;;15.49;92.47;98116.16;2211341;81;21010;-81
2022/08/15 04:34:42;;;;;;;15.85;11.22;;;;;;;16.07;96.25;98118.53;2211755;81;20933;-81
2022/08/15 04:37:42;;;;;;;12.13;10.60;;;;;;;16.54;93.64;98117.94;2211424;81;21324;-81
2022/08/15 04:40:43;;;;;;;13.05;10.18;;;;;;;17.08;92.05;98123.66;2211389;81;20957;-81
2022/08/15 04:43:43;;;;;;;12.43;11.08;;;;;;;17.51;90.46;98124.73;2211636;81;21024;-81
2022/08/15 04:46:43;;;;;;;11.10;10.08;;;;;;;17.89;89.17;98118.86;2211379;81;20996;-81
2022/08/15 04:49:44;;;;;;;12.98;10.90;;;;;;;18.20;87.81;98117.50;2211348;81;20988;-81
2022/08/15 04:52:44;;;;;;;15.23;9.95;;;;;;;18.35;84.28;98112.23;2211495;81;20889;-81
2022/08/15 04:55:47;;;;;;;11.97;10.80;;;;;;;18.27;79.87;98108.51;2211523;81;20937;-82
2022/08/15 04:58:45;;;;;;;24.30;11.68;;;;;;;18.00;81.02;98114.59;2211643;81;20980;-81
2022/08/15 05:01:45;;;;;;;16.60;11.83;;;;;;;17.59;81.51;98121.89;2210976;81;21035;-82
2022/08/15 05:04:46;;;;;;;14.70;11.48;;;;;;;17.36;82.60;98120.33;2209889;81;20956;-82
2022/08/15 05:07:46;;;;;;;17.82;10.65;;;;;;;17.23;83.29;98123.70;2209892;81;20977;-82
2022/08/15 05:10:46;;;;;;;13.95;12.05;;;;;;;17.13;83.65;98124.86;2209915;81;21366;-82
2022/08/15 05:13:47;;;;;;;14.70;12.70;;;;;;;17.08;84.46;98127.61;2209876;81;20968;-82
2022/08/15 05:16:47;;;;;;;21.73;13.13;;;;;;;17.12;85.41;98125.31;2210127;81;20957;-83
2022/08/15 05:19:48;;;;;;;17.57;13.83;;;;;;;17.16;85.99;98123.00;2210188;81;21087;-82
2022/08/15 05:22:48;;;;;;;19.37;13.30;;;;;;;17.19;86.72;98117.65;2210084;81;21047;-82
2022/08/15 05:25:48;;;;;;;19.82;13.68;;;;;;;17.28;87.16;98113.04;2210514;81;20976;-83
2022/08/15 05:28:49;;;;;;;22.90;14.98;;;;;;;17.37;87.64;98115.47;2211812;80;21008;-83
2022/08/15 05:31:49;;;;;;;19.23;14.43;;;;;;;17.47;87.80;98126.18;2211520;81;21351;-82
2022/08/15 05:34:50;;;;;;;21.40;14.68;;;;;;;17.52;87.90;98125.59;2211655;81;20992;-83
2022/08/15 05:37:50;;;;;;;17.20;14.47;;;;;;;17.56;88.11;98125.92;2211659;81;20905;-82
2022/08/15 05:40:51;;;;;;;17.55;15.03;;;;;;;17.55;88.33;98128.16;2211589;81;20968;-82
2022/08/15 05:43:51;;;;;;;19.42;17.40;;;;;;;17.61;88.64;98127.13;2211748;81;20948;-83
2022/08/15 05:46:51;;;;;;;23.35;17.67;;;;;;;17.69;88.85;98127.35;2211222;81;20999;-83
2022/08/15 05:49:52;;;;;;;22.00;16.95;;;;;;;17.79;89.12;98124.86;2211853;81;20933;-83
2022/08/15 05:52:52;;;;;;;20.65;16.90;;;;;;;17.92;89.59;98121.88;2211703;81;20967;-83
2022/08/15 05:55:52;;;;;;;24.72;17.35;;;;;;;18.04;89.69;98123.70;2211576;81;21336;-83
2022/08/15 05:58:53;;;;;;;20.17;15.63;;;;;;;18.19;89.61;98126.34;2211683;81;20956;-82
2022/08/15 06:01:53;;;;;;;25.25;17.85;;;;;;;18.33;89.68;98132.09;2211701;81;21070;-83
2022/08/15 06:04:54;;;;;;;18.57;16.62;;;;;;;18.48;89.54;98141.33;2211235;81;20976;-82
2022/08/15 06:07:54;;;;;;;18.32;16.62;;;;;;;18.57;89.46;98138.41;2211631;81;20937;-82
2022/08/15 06:10:54;;;;;;;21.40;17.35;;;;;;;18.70;89.28;98145.06;2211759;81;20921;-84
2022/08/15 06:13:55;;;;;;;17.87;15.98;;;;;;;18.78;89.15;98141.72;2212890;81;20925;-84
2022/08/15 06:16:55;;;;;;;18.23;15.48;;;;;;;18.89;89.42;98145.34;2212459;81;20925;-82
2022/08/15 06:19:56;;;;;;;22.90;16.42;;;;;;;18.95;89.09;98145.14;2211785;81;20933;-83
2022/08/15 06:22:56;;;;;;;26.62;16.90;;;;;;;18.99;89.21;98141.47;2211903;81;20926;-81
2022/08/15 06:25:56;;;;;;;19.35;16.45;;;;;;;19.08;89.24;98140.34;2211757;81;20960;-82
2022/08/15 06:28:57;;;;;;;17.45;15.70;;;;;;;19.23;89.09;98133.66;2211614;80;21340;-83
2022/08/15 06:31:57;;;;;;;17.87;16.00;;;;;;;19.38;88.74;98139.29;2211657;81;20984;-83
2022/08/15 06:34:58;;;;;;;17.32;15.53;;;;;;;19.55;88.28;98127.28;2212008;81;20925;-83
2022/08/15 06:37:58;;;;;;;22.62;15.68;;;;;;;19.69;87.81;98131.16;2211710;81;20988;-83
2022/08/15 06:40:58;;;;;;;18.65;15.70;;;;;;;19.94;87.60;98126.30;2211742;81;21328;-83
2022/08/15 06:43:59;;;;;;;17.30;15.50;;;;;;;20.20;87.00;98124.88;2211607;81;20925;-82
2022/08/15 06:47:03;;;;;;;15.98;14.47;;;;;;;20.58;86.32;98121.23;2211902;81;20933;-83
2022/08/15 06:50:00;;;;;;;16.23;13.30;;;;;;;20.98;85.30;98120.51;2211842;81;20924;-83
2022/08/15 06:53:00;;;;;;;14.43;12.80;;;;;;;21.39;84.53;98120.58;2211766;81;20913;-83
2022/08/15 06:56:01;;;;;;;12.05;11.00;;;;;;;21.86;83.28;98119.84;2211611;81;20945;-82
2022/08/15 06:59:01;;;;;;;13.48;12.18;;;;;;;22.32;81.27;98119.95;2211992;81;20901;-83
2022/08/15 07:02:01;;;;;;;12.68;11.28;;;;;;;22.67;80.35;98107.67;2211925;81;20984;-83
2022/08/15 07:05:05;;;;;;;13.93;11.08;;;;;;;22.91;78.27;98108.77;2211761;81;20882;-82
2022/08/15 07:08:02;;;;;;;12.18;10.88;;;;;;;23.13;77.99;98106.28;2211705;81;20921;-83
2022/08/15 07:11:03;;;;;;;12.55;11.25;;;;;;;23.39;77.20;98103.62;2211936;81;20973;-83
2022/08/15 07:14:06;;;;;;;12.63;11.43;;;;;;;23.51;76.61;98116.34;2211757;81;21387;-83
2022/08/15 07:17:04;;;;;;;11.53;10.43;;;;;;;23.59;75.88;98111.97;2211971;81;20908;-82
2022/08/15 07:20:04;;;;;;;12.30;10.18;;;;;;;23.69;75.15;98105.22;2211841;81;21008;-83
2022/08/15 07:23:04;;;;;;;12.43;10.68;;;;;;;23.78;74.76;98114.53;2211801;81;21272;-83
2022/08/15 07:26:05;;;;;;;11.10;10.10;;;;;;;23.82;74.44;98102.77;2211288;81;20957;-83
2022/08/15 07:29:05;;;;;;;11.45;10.35;;;;;;;23.77;73.73;98106.15;2211831;81;21013;-83
2022/08/15 07:32:05;;;;;;;11.03;9.95;;;;;;;23.78;73.83;98105.20;2211811;81;20996;-83
2022/08/15 07:35:06;;;;;;;12.03;9.75;;;;;;;23.85;73.61;98106.59;2211676;81;20901;-81
2022/08/15 07:38:06;;;;;;;9.68;8.58;;;;;;;24.01;72.93;98112.83;2211769;81;20964;-82
2022/08/15 07:41:07;;;;;;;10.43;7.15;;;;;;;24.35;73.11;98105.72;2211725;81;20948;-83
2022/08/15 07:44:09;;;;;;;7.40;6.67;;;;;;;24.75;70.72;98107.86;2211927;81;21316;-83
2022/08/15 07:47:08;;;;;;;8.25;6.17;;;;;;;25.09;67.48;98100.12;2211714;81;20984;-83
2022/08/15 07:50:08;;;;;;;6.60;5.95;;;;;;;25.35;65.34;98097.28;2211812;81;20901;-83
2022/08/15 07:53:10;;;;;;;7.00;6.28;;;;;;;25.59;65.28;98090.08;2211928;81;20949;-83
2022/08/15 07:56:09;;;;;;;8.53;6.10;;;;;;;25.83;65.40;98091.75;2211781;81;20929;-84
2022/08/15 07:59:09;;;;;;;7.30;5.33;;;;;;;26.11;64.15;98092.27;2211681;81;20956;-84
2022/08/15 08:02:10;;;;;;;6.45;5.25;;;;;;;26.30;60.02;98090.14;2211192;81;21019;-83
2022/08/15 08:05:11;;;;;;;7.30;5.92;;;;;;;26.39;58.10;98092.26;2211653;81;20960;-83
2022/08/15 08:08:11;;;;;;;5.85;5.22;;;;;;;26.52;59.83;98086.98;2211534;81;21360;-82
2022/08/15 08:11:11;;;;;;;8.08;5.33;;;;;;;26.69;56.19;98085.88;2211097;81;21391;-82
2022/08/15 08:14:11;;;;;;;9.35;5.17;;;;;;;26.80;57.83;98086.89;2211481;81;20893;-83
2022/08/15 08:17:12;;;;;;;7.92;5.00;;;;;;;26.98;57.06;98088.89;2211782;81;20925;-83
2022/08/15 08:20:12;;;;;;;8.63;4.70;;;;;;;27.01;56.00;98081.13;2211557;81;20968;-83
2022/08/15 08:23:12;;;;;;;16.73;5.28;;;;;;;27.16;54.71;98086.33;2211400;81;21269;-84
2022/08/15 08:26:13;;;;;;;5.05;4.58;;;;;;;27.38;54.59;98090.23;2211319;81;20969;-83
2022/08/15 08:29:13;;;;;;;6.78;4.55;;;;;;;27.46;54.97;98082.04;2212614;80;20976;-81
2022/08/15 08:32:15;;;;;;;12.50;5.37;;;;;;;27.64;55.20;98075.92;2222010;80;21083;-84
2022/08/15 08:35:14;;;;;;;6.05;5.15;;;;;;;27.80;54.92;98076.59;2221923;80;20949;-84
2022/08/15 08:38:15;;;;;;;5.90;5.30;;;;;;;27.77;50.97;98077.30;2221889;80;20932;-83
2022/08/15 08:41:34;;;;;;;5.83;5.08;;;;;;;27.59;52.82;98078.03;2221827;80;21003;-83
2022/08/15 08:44:30;;;;;;;6.62;5.03;;;;;;;27.69;52.71;98078.28;2221901;80;20987;-82
2022/08/15 08:47:31;;;;;;;7.97;5.22;;;;;;;27.82;52.38;98071.98;2222208;80;20925;-83
2022/08/15 08:50:31;;;;;;;6.12;5.53;;;;;;;27.97;51.54;98073.20;2221852;80;20920;-83
2022/08/15 08:53:32;;;;;;;5.70;5.20;;;;;;;27.90;52.85;98076.32;2221686;80;20980;-83
2022/08/15 08:56:32;;;;;;;7.17;5.42;;;;;;;28.07;52.82;98079.15;2221866;80;20928;-84
2022/08/15 08:59:32;;;;;;;7.42;4.90;;;;;;;28.18;52.50;98077.90;2221928;80;20932;-83
2022/08/15 09:02:34;;;;;;;6.40;4.90;;;;;;;28.37;50.38;98073.92;2222216;80;21414;-82
2022/08/15 09:05:33;;;;;;;6.22;5.00;;;;;;;28.38;51.23;98077.83;2221770;80;20925;-84
2022/08/15 09:08:33;;;;;;;6.03;5.45;;;;;;;28.29;50.66;98069.59;2222121;80;21226;-84
2022/08/15 09:11:34;;;;;;;5.28;4.72;;;;;;;28.35;50.53;98071.34;2222572;80;20952;-84
2022/08/15 09:14:34;;;;;;;5.80;4.95;;;;;;;28.51;50.79;98067.91;2222084;80;20987;-83
2022/08/15 09:17:35;;;;;;;5.35;4.67;;;;;;;28.51;50.79;98067.91;2221959;80;20924;-82
2022/08/15 09:20:35;;;;;;;7.33;4.60;;;;;;;28.71;49.94;98070.51;2221916;80;20952;-84
2022/08/15 09:23:37;;;;;;;6.90;4.43;;;;;;;28.81;49.44;98064.83;2191707;80;20988;-84
2022/08/15 09:26:40;;;;;;;7.10;4.65;;;;;;;28.85;49.19;98070.86;2222363;80;20932;-83
2022/08/15 09:29:42;;;;;;;4.72;4.33;;;;;;;28.96;48.57;98061.50;2220612;80;21012;-83
2022/08/15 09:32:39;;;;;;;5.60;4.08;;;;;;;29.01;47.85;98057.98;2211700;81;21012;-83
2022/08/15 09:35:39;;;;;;;6.92;3.83;;;;;;;29.03;49.92;98062.76;2211869;81;20885;-83
2022/08/15 09:38:40;;;;;;;5.80;4.33;;;;;;;29.12;47.69;98057.17;2211618;81;20991;-84
2022/08/15 09:41:40;;;;;;;3.98;3.55;;;;;;;29.15;48.23;98052.42;2212235;81;20999;-83
2022/08/15 09:44:40;;;;;;;6.08;4.37;;;;;;;29.30;46.44;98058.94;2212316;81;21382;-84
2022/08/15 09:47:41;;;;;;;4.53;4.10;;;;;;;29.32;46.69;98050.27;2212508;81;20949;-83
2022/08/15 09:50:41;;;;;;;5.60;4.40;;;;;;;29.04;45.87;98052.87;2212049;81;20917;-83
2022/08/15 09:53:41;;;;;;;8.68;4.72;;;;;;;29.00;47.44;98057.62;2212440;81;20920;-83
2022/08/15 09:56:42;;;;;;;5.62;4.55;;;;;;;29.06;46.83;98053.12;2212519;81;20956;-84
2022/08/15 09:59:42;;;;;;;10.72;4.47;;;;;;;29.09;46.58;98056.92;2212209;81;20937;-82
2022/08/15 10:02:43;;;;;;;6.47;4.70;;;;;;;29.11;46.92;98046.91;2212322;81;21032;-84
2022/08/15 10:05:43;;;;;;;5.37;4.80;;;;;;;29.27;47.18;98047.08;2212402;81;20945;-83
2022/08/15 10:08:44;;;;;;;5.50;5.00;;;;;;;29.49;46.69;98036.45;2212118;81;20944;-83
2022/08/15 10:11:46;;;;;;;5.90;4.97;;;;;;;29.61;47.24;98039.52;2213029;81;20941;-84
2022/08/15 10:14:44;;;;;;;5.70;5.10;;;;;;;29.90;46.13;98037.72;2212314;81;20952;-83
2022/08/15 10:17:45;;;;;;;6.45;5.30;;;;;;;29.94;45.37;98041.38;2212226;81;20972;-82
2022/08/15 10:20:46;;;;;;;5.22;4.83;;;;;;;29.87;46.38;98029.89;2212211;81;20984;-83
2022/08/15 10:23:45;;;;;;;6.20;5.60;;;;;;;29.88;46.06;98038.33;2212383;81;20945;-82
2022/08/15 10:26:47;;;;;;;7.95;5.95;;;;;;;29.90;45.85;98033.68;2212413;81;20901;-84
2022/08/15 10:29:50;;;;;;;6.72;5.50;;;;;;;29.99;44.70;98036.98;2213693;80;20964;-83
2022/08/15 10:32:52;;;;;;;5.78;5.15;;;;;;;29.96;45.13;98035.88;2222867;80;21027;-84
2022/08/15 10:35:51;;;;;;;9.83;5.70;;;;;;;29.97;45.71;98028.17;2223158;80;20928;-83
2022/08/15 10:38:51;;;;;;;7.42;5.87;;;;;;;30.01;45.59;98030.98;2222883;80;20923;-84
2022/08/15 10:41:51;;;;;;;6.37;5.75;;;;;;;30.05;45.31;98029.80;2223275;80;20952;-83
2022/08/15 10:44:51;;;;;;;6.92;5.20;;;;;;;30.08;44.94;98024.16;2223146;80;21355;-84
2022/08/15 10:47:52;;;;;;;8.50;6.15;;;;;;;29.99;44.56;98030.25;2223129;80;20925;-83
2022/08/15 10:50:53;;;;;;;8.35;5.80;;;;;;;30.00;44.63;98029.27;2222712;80;20921;-83
2022/08/15 10:53:53;;;;;;;9.10;5.95;;;;;;;29.98;44.41;98029.40;2222979;80;21292;-83
2022/08/15 10:56:54;;;;;;;7.45;5.58;;;;;;;29.99;44.16;98028.91;2223160;80;20920;-83
2022/08/15 10:59:54;;;;;;;9.98;5.87;;;;;;;30.00;44.31;98031.97;2223182;80;20988;-83
2022/08/15 11:02:55;;;;;;;10.28;6.05;;;;;;;29.86;45.17;98034.90;2223058;80;21011;-83
2022/08/15 11:05:55;;;;;;;10.80;5.85;;;;;;;29.76;45.53;98029.39;2222756;80;21383;-83
2022/08/15 11:08:55;;;;;;;10.70;6.65;;;;;;;29.77;45.83;98026.58;2223153;80;20952;-83
2022/08/15 11:11:55;;;;;;;6.42;5.75;;;;;;;29.78;45.09;98024.75;2223161;80;20900;-83
2022/08/15 11:14:55;;;;;;;6.62;6.03;;;;;;;29.84;45.14;98030.12;2223080;80;20940;-83
2022/08/15 11:17:56;;;;;;;6.50;5.87;;;;;;;29.83;45.13;98025.24;2223123;80;20905;-83
2022/08/15 11:20:56;;;;;;;8.18;6.80;;;;;;;29.98;44.94;98025.36;2222950;80;21371;-84
2022/08/15 11:23:57;;;;;;;8.90;6.30;;;;;;;30.06;45.35;98025.64;2223032;80;20991;-84
2022/08/15 11:26:57;;;;;;;7.08;6.17;;;;;;;30.18;43.74;98023.79;2223127;80;20928;-84
2022/08/15 11:29:58;;;;;;;9.80;5.87;;;;;;;30.13;44.90;98032.72;2222969;80;20979;-83
2022/08/15 11:32:58;;;;;;;14.43;6.33;;;;;;;30.20;44.00;98035.28;2222570;80;21025;-83
2022/08/15 11:35:58;;;;;;;9.08;6.17;;;;;;;30.24;44.49;98031.86;2222741;80;20932;-83
2022/08/15 11:38:59;;;;;;;6.70;6.05;;;;;;;30.21;44.71;98032.11;2222701;80;20905;-83
2022/08/15 11:42:00;;;;;;;11.78;6.40;;;;;;;30.17;44.81;98030.16;2221442;80;21034;-83
2022/08/15 11:44:59;;;;;;;9.50;6.60;;;;;;;30.25;44.95;98019.63;2222811;80;20976;-83
2022/08/15 11:48:00;;;;;;;8.43;6.40;;;;;;;30.31;44.96;98020.95;2223067;80;20919;-83
2022/08/15 11:51:00;;;;;;;8.65;6.37;;;;;;;30.43;45.00;98020.84;2223039;80;20932;-83
2022/08/15 11:54:01;;;;;;;6.95;6.22;;;;;;;30.60;44.65;98032.09;2223036;80;20917;-83
2022/08/15 11:57:01;;;;;;;8.60;6.00;;;;;;;30.73;43.31;98017.97;2223029;80;20928;-82
2022/08/15 12:00:01;;;;;;;8.05;6.50;;;;;;;30.59;42.24;98022.30;2223216;80;20956;-83
2022/08/15 12:03:02;;;;;;;9.65;6.28;;;;;;;30.29;42.05;98023.77;2222908;80;21414;-83
2022/08/15 12:06:02;;;;;;;6.87;6.17;;;;;;;30.17;43.21;98019.39;2222504;80;20984;-82
2022/08/15 12:09:03;;;;;;;7.72;6.30;;;;;;;30.13;43.95;98015.23;2222442;80;20967;-82
2022/08/15 12:12:03;;;;;;;8.78;6.67;;;;;;;30.29;44.36;98006.28;2222984;80;20956;-82
2022/08/15 12:15:03;;;;;;;8.40;6.50;;;;;;;30.43;43.92;98010.56;2223108;80;20901;-82
2022/08/15 12:18:04;;;;;;;9.48;6.65;;;;;;;30.54;43.78;98006.49;2221354;80;21296;-82
2022/08/15 12:21:04;;;;;;;7.83;6.58;;;;;;;30.30;41.21;98004.44;2221227;80;20992;-82
2022/08/15 12:24:05;;;;;;;9.15;6.60;;;;;;;29.66;40.94;97998.34;2221182;80;21046;-83
2022/08/15 12:27:06;;;;;;;11.25;7.30;;;;;;;29.30;42.26;98003.36;2221927;80;21335;-82
2022/08/15 12:30:05;;;;;;;11.12;7.45;;;;;;;29.20;43.23;97996.13;2222044;80;20937;-82
2022/08/15 12:33:07;;;;;;;7.87;6.65;;;;;;;29.12;43.44;97997.57;2222239;80;21043;-82
2022/08/15 12:36:06;;;;;;;9.00;7.42;;;;;;;29.05;43.65;97990.10;2222562;80;20932;-81
2022/08/15 12:39:07;;;;;;;11.35;6.97;;;;;;;28.97;44.32;97994.72;2222941;80;20936;-83
2022/08/15 12:42:07;;;;;;;8.23;6.42;;;;;;;28.88;44.34;97990.05;2222852;80;21100;-82
2022/08/15 12:45:08;;;;;;;9.93;6.95;;;;;;;28.87;44.60;97995.05;2222668;80;21331;-82
2022/08/15 12:48:08;;;;;;;7.67;6.62;;;;;;;28.94;44.58;97991.41;2222628;80;20928;-82
2022/08/15 12:51:09;;;;;;;7.58;6.60;;;;;;;28.91;44.61;97987.13;2223046;80;20932;-82
2022/08/15 12:54:09;;;;;;;7.55;6.85;;;;;;;28.84;44.49;97981.36;2222733;80;20916;-82
2022/08/15 12:57:09;;;;;;;11.48;7.08;;;;;;;29.01;44.63;97969.33;2222613;80;20956;-82
2022/08/15 13:00:10;;;;;;;9.43;6.62;;;;;;;29.09;44.58;97968.25;2222719;80;20960;-82
2022/08/15 13:03:10;;;;;;;10.05;6.87;;;;;;;29.23;45.20;97969.02;2222918;80;21032;-82
2022/08/15 13:06:11;;;;;;;8.45;6.30;;;;;;;29.18;43.48;97968.88;2223013;80;20924;-83
2022/08/15 13:09:12;;;;;;;9.80;6.95;;;;;;;29.27;43.62;97967.80;2222728;80;21387;-83
2022/08/15 13:12:12;;;;;;;7.58;6.80;;;;;;;29.40;43.45;97963.17;2222888;80;20928;-83
2022/08/15 13:15:12;;;;;;;7.45;6.75;;;;;;;29.36;43.54;97963.05;2222944;80;20924;-83
2022/08/15 13:18:13;;;;;;;7.25;6.22;;;;;;;28.58;42.02;97958.25;2222957;80;20963;-82
2022/08/15 13:24:33;;;;;;;9.28;6.75;;;;;;;27.79;41.94;97962.26;2222535;80;21000;-82
2022/08/15 13:27:33;;;;;;;9.98;6.55;;;;;;;27.66;42.06;97959.19;2222925;80;20928;-83
2022/08/15 13:30:35;;;;;;;9.03;6.05;;;;;;;28.10;43.37;97957.34;2222723;80;21336;-82
2022/08/15 13:33:34;;;;;;;9.40;6.70;;;;;;;28.53;42.50;97949.69;2222247;80;21023;-82
2022/08/15 13:36:34;;;;;;;7.50;6.35;;;;;;;28.77;42.78;97952.38;2222494;80;20925;-83
2022/08/15 13:39:35;;;;;;;8.00;6.55;;;;;;;28.91;42.24;97945.49;2222285;80;20952;-82
2022/08/15 13:42:35;;;;;;;12.45;6.75;;;;;;;28.95;42.29;97946.97;2221903;80;21016;-82
2022/08/15 13:45:38;;;;;;;7.03;6.35;;;;;;;28.95;42.13;97941.59;2222381;80;20919;-82
2022/08/15 13:48:36;;;;;;;7.10;6.45;;;;;;;29.04;42.47;97940.88;2222462;80;20885;-82
2022/08/15 13:51:36;;;;;;;9.68;6.35;;;;;;;29.05;41.84;97941.25;2222379;80;21296;-83
2022/08/15 13:54:37;;;;;;;7.65;6.30;;;;;;;29.10;41.57;97943.09;2222402;80;20968;-82
2022/08/15 13:57:37;;;;;;;7.53;6.58;;;;;;;29.28;41.37;97951.55;2222662;80;20967;-83
2022/08/15 14:00:37;;;;;;;8.00;6.50;;;;;;;29.24;41.42;97947.39;2222366;80;20944;-82